createdAt,value
2022-12-18T00:00:04.554Z,31.35
2022-12-18T00:02:42.621Z,34.65
2022-12-18T00:05:11.675Z,47.05
2022-12-18T00:07:41.060Z,31.73
2022-12-18T00:10:10.677Z,44.30
2022-12-18T00:12:49.499Z,44.88
2022-12-18T00:15:23.739Z,45.13
2022-12-18T00:17:58.505Z,37.80
2022-12-18T00:20:27.765Z,36.83
2022-12-18T00:22:58.794Z,34.38
2022-12-18T00:25:28.063Z,36.60
2022-12-18T00:28:07.323Z,36.65
2022-12-18T00:30:46.275Z,42.67
2022-12-18T00:33:15.393Z,40.22
2022-12-18T00:35:44.342Z,34.80
2022-12-18T00:38:13.508Z,33.90
2022-12-18T00:40:42.806Z,28.63
2022-12-18T00:43:21.510Z,32.13
2022-12-18T00:45:50.270Z,34.00
2022-12-18T00:48:18.907Z,37.53
2022-12-18T00:50:49.468Z,35.53
2022-12-18T00:53:23.476Z,30.23
2022-12-18T00:55:52.474Z,28.95
2022-12-18T00:58:25.962Z,29.23
2022-12-18T01:00:56.428Z,34.63
2022-12-18T01:03:25.552Z,48.83
2022-12-18T01:05:58.836Z,49.65
2022-12-18T01:08:27.582Z,53.03
2022-12-18T01:11:01.903Z,47.45
2022-12-18T01:13:30.916Z,34.42
2022-12-18T01:16:00.410Z,36.63
2022-12-18T01:18:29.251Z,49.90
2022-12-18T01:21:01.034Z,37.80
2022-12-18T01:23:31.228Z,246.85
2022-12-18T01:26:14.116Z,38.40
2022-12-18T01:28:45.188Z,44.85
2022-12-18T01:31:18.721Z,44.72
2022-12-18T01:33:54.712Z,36.35
2022-12-18T01:36:29.579Z,43.14
2022-12-18T01:39:01.381Z,34.15
2022-12-18T01:41:50.410Z,38.95
2022-12-18T01:44:38.839Z,27.05
2022-12-18T01:50:30.233Z,40.50
2022-12-18T01:53:01.796Z,34.45
2022-12-18T01:55:32.476Z,66.10
2022-12-18T01:58:02.885Z,52.07
2022-12-18T02:00:31.848Z,43.88
2022-12-18T02:03:10.676Z,35.40
2022-12-18T02:05:49.551Z,35.40
2022-12-18T02:08:23.983Z,59.22
2022-12-18T02:10:53.821Z,29.75
2022-12-18T02:13:45.260Z,29.85
2022-12-18T02:19:07.883Z,32.25
2022-12-18T02:21:42.814Z,28.17
2022-12-18T02:24:34.453Z,48.85
2022-12-18T02:27:10.652Z,39.50
2022-12-18T02:29:42.147Z,45.33
2022-12-18T02:32:16.539Z,44.55
2022-12-18T02:34:46.051Z,72.68
2022-12-18T02:37:19.256Z,69.10
2022-12-18T02:39:51.407Z,61.92
2022-12-18T02:42:24.570Z,59.38
2022-12-18T02:44:57.482Z,45.75
2022-12-18T02:47:34.322Z,59.85
2022-12-18T02:50:03.996Z,72.68
2022-12-18T02:52:36.409Z,48.35
2022-12-18T02:55:07.807Z,48.17
2022-12-18T02:57:46.574Z,35.45
2022-12-18T03:00:24.443Z,35.95
2022-12-18T03:03:00.304Z,38.15
2022-12-18T03:05:40.128Z,50.63
2022-12-18T03:08:11.967Z,48.95
2022-12-18T03:11:03.354Z,40.50
2022-12-18T03:13:47.121Z,54.20
2022-12-18T03:16:24.249Z,58.83
2022-12-18T03:19:13.934Z,53.65
2022-12-18T03:21:46.661Z,111.75
2022-12-18T03:24:18.758Z,95.43
2022-12-18T03:27:01.754Z,59.00
2022-12-18T03:29:50.849Z,369.83
2022-12-18T03:32:32.964Z,119.50
2022-12-18T03:35:08.779Z,288.02
2022-12-18T03:37:50.245Z,323.52
2022-12-18T03:40:29.465Z,395.23
2022-12-18T03:46:39.581Z,314.25
2022-12-18T03:49:16.223Z,322.83
2022-12-18T03:52:11.447Z,835.75
2022-12-18T03:54:43.190Z,300.42
2022-12-18T03:57:21.109Z,141.93
2022-12-18T03:59:56.666Z,139.60
2022-12-18T04:02:32.253Z,145.30
2022-12-18T04:05:04.573Z,121.47
2022-12-18T04:07:47.076Z,135.80
2022-12-18T04:10:17.340Z,306.08
2022-12-18T04:15:21.270Z,683.83
2022-12-18T04:17:50.954Z,270.25
2022-12-18T04:20:32.999Z,547.03
2022-12-18T04:23:13.154Z,79.78
2022-12-18T04:25:49.150Z,181.60
2022-12-18T04:28:26.210Z,138.20
2022-12-18T04:30:55.626Z,113.25
2022-12-18T04:33:37.134Z,87.72
2022-12-18T04:36:06.555Z,75.15
2022-12-18T04:38:38.448Z,74.50
2022-12-18T04:41:11.437Z,68.20
2022-12-18T04:43:42.868Z,59.38
2022-12-18T04:46:11.852Z,53.60
2022-12-18T04:48:41.093Z,57.53
2022-12-18T04:51:10.091Z,52.65
2022-12-18T04:53:39.689Z,146.13
2022-12-18T04:56:14.449Z,211.07
2022-12-18T04:58:44.140Z,102.37
2022-12-18T05:01:20.886Z,79.15
2022-12-18T05:03:50.419Z,265.30
2022-12-18T05:06:19.532Z,107.45
2022-12-18T05:08:48.596Z,69.00
2022-12-18T05:11:17.518Z,217.82
2022-12-18T05:13:48.439Z,131.80
2022-12-18T05:16:17.717Z,135.90
2022-12-18T05:18:46.456Z,124.67
2022-12-18T05:21:15.489Z,86.30
2022-12-18T05:23:44.514Z,84.00
2022-12-18T05:26:20.109Z,87.30
2022-12-18T05:28:49.180Z,97.80
2022-12-18T05:31:17.896Z,104.95
2022-12-18T05:33:46.754Z,112.30
2022-12-18T05:36:15.453Z,113.53
2022-12-18T05:38:44.455Z,116.95
2022-12-18T05:41:13.350Z,122.35
2022-12-18T05:43:42.899Z,117.15
2022-12-18T05:46:14.724Z,116.65
2022-12-18T05:48:54.012Z,100.60
2022-12-18T05:51:24.516Z,107.85
2022-12-18T05:54:03.483Z,97.22
2022-12-18T05:56:34.642Z,95.57
2022-12-18T05:59:03.356Z,99.95
2022-12-18T06:01:32.036Z,88.63
2022-12-18T06:04:11.209Z,94.68
2022-12-18T06:06:40.750Z,90.68
2022-12-18T06:09:11.023Z,84.32
2022-12-18T06:11:40.207Z,91.40
2022-12-18T06:14:10.689Z,76.60
2022-12-18T06:16:53.749Z,82.28
2022-12-18T06:19:25.118Z,72.99
2022-12-18T06:21:54.944Z,71.50
2022-12-18T06:24:24.258Z,76.00
2022-12-18T06:26:54.096Z,75.78
2022-12-18T06:29:22.914Z,80.53
2022-12-18T06:31:51.676Z,66.35
2022-12-18T06:34:24.877Z,72.90
2022-12-18T06:36:55.831Z,79.82
2022-12-18T06:39:24.736Z,77.93
2022-12-18T06:41:54.318Z,85.00
2022-12-18T06:44:23.370Z,78.50
2022-12-18T06:46:52.406Z,68.78
2022-12-18T06:49:23.396Z,72.18
2022-12-18T06:51:54.905Z,71.43
2022-12-18T06:54:30.800Z,64.80
2022-12-18T06:57:10.003Z,69.38
2022-12-18T06:59:38.997Z,70.03
2022-12-18T07:02:08.330Z,71.28
2022-12-18T07:04:37.394Z,77.55
2022-12-18T07:07:06.160Z,85.93
2022-12-18T07:09:35.085Z,82.72
2022-12-18T07:12:06.320Z,81.40
2022-12-18T07:14:35.847Z,71.28
2022-12-18T07:17:04.681Z,74.75
2022-12-18T07:19:35.687Z,81.45
2022-12-18T07:22:04.591Z,94.88
2022-12-18T07:24:34.942Z,66.50
2022-12-18T07:27:05.645Z,68.18
2022-12-18T07:29:37.704Z,70.78
2022-12-18T07:32:08.406Z,73.72
2022-12-18T07:34:37.440Z,65.45
2022-12-18T07:37:06.229Z,62.55
2022-12-18T07:39:35.038Z,64.20
2022-12-18T07:42:22.431Z,61.38
2022-12-18T07:44:52.605Z,61.22
2022-12-18T07:47:21.388Z,60.97
2022-12-18T07:49:50.675Z,61.70
2022-12-18T07:52:25.611Z,85.07
2022-12-18T07:55:06.452Z,57.42
2022-12-18T07:57:55.219Z,73.78
2022-12-18T08:00:25.814Z,71.27
2022-12-18T08:02:54.830Z,75.93
2022-12-18T08:05:28.185Z,73.10
2022-12-18T08:07:59.857Z,68.55
2022-12-18T08:10:28.598Z,69.49
2022-12-18T08:13:05.060Z,67.38
2022-12-18T08:15:36.679Z,65.40
2022-12-18T08:18:12.692Z,70.30
2022-12-18T08:20:45.674Z,73.33
2022-12-18T08:23:20.733Z,73.10
2022-12-18T08:25:50.151Z,80.57
2022-12-18T08:28:19.909Z,73.90
2022-12-18T08:30:53.494Z,79.93
2022-12-18T08:33:22.512Z,74.63
2022-12-18T08:35:53.888Z,73.38
2022-12-18T08:38:24.316Z,71.43
2022-12-18T08:41:04.168Z,68.78
2022-12-18T08:43:51.978Z,63.63
2022-12-18T08:46:24.215Z,65.25
2022-12-18T08:48:57.538Z,66.38
2022-12-18T08:51:26.611Z,68.30
2022-12-18T08:53:55.255Z,65.05
2022-12-18T08:56:23.916Z,67.50
2022-12-18T08:58:57.000Z,79.78
2022-12-18T09:01:31.165Z,67.15
2022-12-18T09:04:11.588Z,73.57
2022-12-18T09:06:41.523Z,61.53
2022-12-18T09:09:11.354Z,62.72
2022-12-18T09:11:40.338Z,61.95
2022-12-18T09:14:10.996Z,60.10
2022-12-18T09:16:40.128Z,63.00
2022-12-18T09:19:08.727Z,56.25
2022-12-18T09:21:46.112Z,56.05
2022-12-18T09:24:17.654Z,48.53
2022-12-18T09:26:47.429Z,54.75
2022-12-18T09:29:19.204Z,45.40
2022-12-18T09:31:48.953Z,59.03
2022-12-18T09:34:18.180Z,44.47
2022-12-18T09:36:47.382Z,47.58
2022-12-18T09:39:25.997Z,46.97
2022-12-18T09:42:04.728Z,44.65
2022-12-18T09:44:47.909Z,44.35
2022-12-18T09:47:21.222Z,50.35
2022-12-18T09:49:52.455Z,51.28
2022-12-18T09:52:22.070Z,52.45
2022-12-18T09:54:58.628Z,55.88
2022-12-18T09:57:28.439Z,50.85
2022-12-18T10:00:00.290Z,58.80
2022-12-18T10:02:32.877Z,57.40
2022-12-18T10:05:22.906Z,63.40
2022-12-18T10:08:02.250Z,66.38
2022-12-18T10:10:36.451Z,63.08
2022-12-18T10:16:15.320Z,71.25
2022-12-18T10:19:08.957Z,71.78
2022-12-18T10:21:47.602Z,71.33
2022-12-18T10:24:16.595Z,76.10
2022-12-18T10:26:45.997Z,77.18
2022-12-18T10:29:22.763Z,89.63
2022-12-18T10:31:52.116Z,81.95
2022-12-18T10:34:21.354Z,82.78
2022-12-18T10:36:55.565Z,81.82
2022-12-18T10:39:26.259Z,91.75
2022-12-18T10:42:10.611Z,91.23
2022-12-18T10:44:39.629Z,109.80
2022-12-18T10:47:18.036Z,111.20
2022-12-18T10:49:51.637Z,126.50
2022-12-18T10:52:22.292Z,125.53
2022-12-18T10:54:56.399Z,120.75
2022-12-18T10:57:33.450Z,186.43
2022-12-18T11:00:22.757Z,153.23
2022-12-18T11:02:51.960Z,150.55
2022-12-18T11:05:34.332Z,141.32
2022-12-18T11:08:04.287Z,138.45
2022-12-18T11:10:34.982Z,148.15
2022-12-18T11:13:42.191Z,144.73
2022-12-18T11:16:19.478Z,142.23
2022-12-18T11:18:48.458Z,155.77
2022-12-18T11:21:18.969Z,166.52
2022-12-18T11:23:56.735Z,164.38
2022-12-18T11:26:35.435Z,211.20
2022-12-18T11:29:12.478Z,199.68
2022-12-18T11:31:41.690Z,171.57
2022-12-18T11:34:30.932Z,166.10
2022-12-18T11:37:01.828Z,185.10
2022-12-18T11:39:40.016Z,235.90
2022-12-18T11:42:19.707Z,493.92
2022-12-18T11:45:01.458Z,232.00
2022-12-18T11:47:39.038Z,179.43
2022-12-18T11:50:13.670Z,167.23
2022-12-18T11:52:51.497Z,168.05
2022-12-18T11:55:32.561Z,150.48
2022-12-18T11:58:12.512Z,146.10
2022-12-18T12:01:10.307Z,156.70
2022-12-18T12:03:52.199Z,166.45
2022-12-18T12:06:29.195Z,169.45
2022-12-18T12:09:07.679Z,209.18
2022-12-18T12:11:51.954Z,223.00
2022-12-18T12:14:46.234Z,177.75
2022-12-18T12:17:33.802Z,166.98
2022-12-18T12:20:25.264Z,164.35
2022-12-18T12:23:05.055Z,168.00
2022-12-18T12:25:46.372Z,187.20
2022-12-18T12:28:21.047Z,180.52
2022-12-18T12:31:07.263Z,187.20
2022-12-18T12:33:36.593Z,180.60
2022-12-18T12:36:14.348Z,190.70
2022-12-18T12:38:51.666Z,219.95
2022-12-18T12:41:51.577Z,173.25
2022-12-18T12:44:26.449Z,174.82
2022-12-18T12:46:57.836Z,156.90
2022-12-18T12:49:40.328Z,158.88
2022-12-18T12:52:14.085Z,157.30
2022-12-18T12:54:45.753Z,149.55
2022-12-18T12:57:15.244Z,134.18
2022-12-18T13:00:01.895Z,123.85
2022-12-18T13:02:46.119Z,120.97
2022-12-18T13:05:39.148Z,131.93
2022-12-18T13:08:08.922Z,167.10
2022-12-18T13:10:38.130Z,171.98
2022-12-18T13:13:17.894Z,159.82
2022-12-18T13:16:08.988Z,141.73
2022-12-18T13:18:52.394Z,139.90
2022-12-18T13:21:28.505Z,136.93
2022-12-18T13:24:21.683Z,122.80
2022-12-18T13:27:00.199Z,124.38
2022-12-18T13:29:46.186Z,248.23
2022-12-18T13:32:26.197Z,130.38
2022-12-18T13:38:22.159Z,142.13
2022-12-18T13:40:51.499Z,160.13
2022-12-18T13:43:20.794Z,163.45
2022-12-18T13:46:02.132Z,160.00
2022-12-18T13:48:33.668Z,217.38
2022-12-18T13:51:05.647Z,159.80
2022-12-18T13:53:55.002Z,128.86
2022-12-18T13:56:29.346Z,117.10
2022-12-18T13:59:32.815Z,105.15
2022-12-18T14:02:07.235Z,101.32
2022-12-18T14:04:39.840Z,108.53
2022-12-18T14:07:13.911Z,91.25
2022-12-18T14:09:50.327Z,89.28
2022-12-18T14:12:40.931Z,90.95
2022-12-18T14:15:35.565Z,85.22
2022-12-18T14:18:26.008Z,83.75
2022-12-18T14:20:59.953Z,182.25
2022-12-18T14:23:39.825Z,128.18
2022-12-18T14:26:21.980Z,173.60
2022-12-18T14:28:51.662Z,166.77
2022-12-18T14:31:21.869Z,188.85
2022-12-18T14:34:00.011Z,119.78
2022-12-18T14:36:29.986Z,92.95
2022-12-18T14:38:59.421Z,79.50
2022-12-18T14:41:29.261Z,101.50
2022-12-18T14:44:06.693Z,80.65
2022-12-18T14:46:47.361Z,74.38
2022-12-18T14:49:20.076Z,75.65
2022-12-18T14:51:57.236Z,90.15
2022-12-18T14:54:31.391Z,78.30
2022-12-18T14:57:19.034Z,81.55
2022-12-18T14:59:54.033Z,70.25
2022-12-18T15:02:24.733Z,73.65
2022-12-18T15:05:13.289Z,75.32
2022-12-18T15:07:45.069Z,75.07
2022-12-18T15:10:22.691Z,81.13
2022-12-18T15:12:57.873Z,80.47
2022-12-18T15:15:38.610Z,81.82
2022-12-18T15:18:08.845Z,71.47
2022-12-18T15:20:52.572Z,82.85
2022-12-18T15:23:25.810Z,87.40
2022-12-18T15:26:02.005Z,85.85
2022-12-18T15:28:38.273Z,82.90
2022-12-18T15:31:08.293Z,79.50
2022-12-18T15:33:54.340Z,97.03
2022-12-18T15:36:37.718Z,89.15
2022-12-18T15:39:07.487Z,86.80
2022-12-18T15:41:38.011Z,86.70
2022-12-18T15:44:26.954Z,88.07
2022-12-18T15:47:00.137Z,89.53
2022-12-18T15:49:28.985Z,91.55
2022-12-18T15:52:01.620Z,90.63
2022-12-18T15:54:48.842Z,88.97
2022-12-18T15:57:26.059Z,107.00
2022-12-18T15:59:57.869Z,89.65
2022-12-18T16:02:27.492Z,91.28
2022-12-18T16:04:56.466Z,96.28
2022-12-18T16:07:28.097Z,86.25
2022-12-18T16:10:00.361Z,89.93
2022-12-18T16:12:31.754Z,83.55
2022-12-18T16:15:00.837Z,120.45
2022-12-18T16:17:31.774Z,93.22
2022-12-18T16:20:08.999Z,86.40
2022-12-18T16:22:37.999Z,75.68
2022-12-18T16:25:07.766Z,66.70
2022-12-18T16:27:48.149Z,63.53
2022-12-18T16:30:22.581Z,67.22
2022-12-18T16:32:51.855Z,62.50
2022-12-18T16:35:26.683Z,61.50
2022-12-18T16:37:55.366Z,51.15
2022-12-18T16:40:56.552Z,59.72
2022-12-18T16:43:25.732Z,54.47
2022-12-18T16:45:58.654Z,59.90
2022-12-18T16:48:35.893Z,51.25
2022-12-18T16:51:10.029Z,46.67
2022-12-18T16:53:49.547Z,49.80
2022-12-18T16:56:18.401Z,48.63
2022-12-18T16:58:57.802Z,45.25
2022-12-18T17:01:37.473Z,46.20
2022-12-18T17:04:12.505Z,45.78
2022-12-18T17:06:44.648Z,44.83
2022-12-18T17:09:17.548Z,44.60
2022-12-18T17:11:50.706Z,43.70
2022-12-18T17:14:20.857Z,43.10
2022-12-18T17:17:07.394Z,38.80
2022-12-18T17:19:40.386Z,41.60
2022-12-18T17:22:09.982Z,41.53
2022-12-18T17:24:45.284Z,38.80
2022-12-18T17:27:14.737Z,48.08
2022-12-18T17:29:47.691Z,48.42
2022-12-18T17:32:18.418Z,45.42
2022-12-18T17:34:47.427Z,48.55
2022-12-18T17:37:16.087Z,48.50
2022-12-18T17:39:44.928Z,49.15
2022-12-18T17:42:26.804Z,48.95
2022-12-18T17:44:55.920Z,52.83
2022-12-18T17:47:35.506Z,48.33
2022-12-18T17:50:10.147Z,47.22
2022-12-18T17:52:38.838Z,49.92
2022-12-18T17:55:13.367Z,45.60
2022-12-18T17:57:51.894Z,50.00
2022-12-18T18:00:26.053Z,52.25
2022-12-18T18:03:01.699Z,48.63
2022-12-18T18:05:30.538Z,45.30
2022-12-18T18:08:02.706Z,45.42
2022-12-18T18:10:33.666Z,37.33
2022-12-18T18:13:23.586Z,41.38
2022-12-18T18:15:57.688Z,44.47
2022-12-18T18:18:26.423Z,39.67
2022-12-18T18:20:55.633Z,44.85
2022-12-18T18:23:31.689Z,40.38
2022-12-18T18:26:04.751Z,39.08
2022-12-18T18:28:34.440Z,37.53
2022-12-18T18:31:14.842Z,41.97
2022-12-18T18:33:54.832Z,39.13
2022-12-18T18:36:24.930Z,41.40
2022-12-18T18:39:01.816Z,40.47
2022-12-18T18:41:31.609Z,44.65
2022-12-18T18:44:11.792Z,36.67
2022-12-18T18:46:44.347Z,43.50
2022-12-18T18:49:24.751Z,44.17
2022-12-18T18:51:54.387Z,42.38
2022-12-18T18:54:29.873Z,40.47
2022-12-18T18:59:49.548Z,45.25
2022-12-18T19:02:18.348Z,59.20
2022-12-18T19:04:47.464Z,45.28
2022-12-18T19:07:18.509Z,44.23
2022-12-18T19:10:09.424Z,39.47
2022-12-18T19:12:57.834Z,40.78
2022-12-18T19:15:27.114Z,44.13
2022-12-18T19:18:01.274Z,41.45
2022-12-18T19:20:36.043Z,36.67
2022-12-18T19:23:04.734Z,39.67
2022-12-18T19:25:40.633Z,35.80
2022-12-18T19:28:22.572Z,35.92
2022-12-18T19:30:59.040Z,40.85
2022-12-18T19:33:45.192Z,38.60
2022-12-18T19:36:22.282Z,40.15
2022-12-18T19:38:52.074Z,34.42
2022-12-18T19:41:27.554Z,35.17
2022-12-18T19:44:07.556Z,41.05
2022-12-18T19:46:48.789Z,38.20
2022-12-18T19:49:18.282Z,32.83
2022-12-18T19:51:47.044Z,34.35
2022-12-18T19:54:17.524Z,39.13
2022-12-18T19:56:47.367Z,33.08
2022-12-18T19:59:16.495Z,36.78
2022-12-18T20:01:45.735Z,37.00
2022-12-18T20:04:15.395Z,36.33
2022-12-18T20:06:51.227Z,33.10
2022-12-18T20:09:21.229Z,34.50
2022-12-18T20:11:53.010Z,35.20
2022-12-18T20:14:23.380Z,34.92
2022-12-18T20:16:53.437Z,34.17
2022-12-18T20:19:23.322Z,38.20
2022-12-18T20:21:52.641Z,34.58
2022-12-18T20:24:30.771Z,33.20
2022-12-18T20:27:00.240Z,31.27
2022-12-18T20:29:29.224Z,29.13
2022-12-18T20:31:57.936Z,31.35
2022-12-18T20:34:26.996Z,33.92
2022-12-18T20:37:02.063Z,29.35
2022-12-18T20:39:32.386Z,33.92
2022-12-18T20:42:02.332Z,27.65
2022-12-18T20:44:36.828Z,29.92
2022-12-18T20:47:08.805Z,29.60
2022-12-18T20:49:48.328Z,29.88
2022-12-18T20:52:26.898Z,31.08
2022-12-18T20:55:06.206Z,32.63
2022-12-18T20:57:35.166Z,30.85
2022-12-18T21:00:16.517Z,30.52
2022-12-18T21:02:49.586Z,29.92
2022-12-18T21:05:28.054Z,29.23
2022-12-18T21:08:07.713Z,31.57
2022-12-18T21:10:37.125Z,28.55
2022-12-18T21:13:07.410Z,27.20
2022-12-18T21:15:42.876Z,30.65
2022-12-18T21:18:11.620Z,29.50
2022-12-18T21:20:51.169Z,30.25
2022-12-18T21:23:35.963Z,36.22
2022-12-18T21:26:20.801Z,28.17
2022-12-18T21:28:56.582Z,31.95
2022-12-18T21:31:36.569Z,29.00
2022-12-18T21:34:06.445Z,30.20
2022-12-18T21:36:45.203Z,30.70
2022-12-18T21:39:15.826Z,30.10
2022-12-18T21:42:03.719Z,31.10
2022-12-18T21:44:41.433Z,30.48
2022-12-18T21:47:22.916Z,29.25
2022-12-18T21:49:53.276Z,26.02
2022-12-18T21:52:32.091Z,28.48
2022-12-18T21:55:09.622Z,26.23
2022-12-18T21:57:39.706Z,28.50
2022-12-18T22:00:18.474Z,31.50
2022-12-18T22:03:17.946Z,27.85
2022-12-18T22:05:43.882Z,26.65
2022-12-18T22:08:23.230Z,26.63
2022-12-18T22:10:52.976Z,28.17
2022-12-18T22:13:29.380Z,24.73
2022-12-18T22:16:04.325Z,27.80
2022-12-18T22:18:34.012Z,28.65
2022-12-18T22:21:29.299Z,29.13
2022-12-18T22:24:11.185Z,30.45
2022-12-18T22:26:40.618Z,27.42
2022-12-18T22:29:35.939Z,33.43
2022-12-18T22:32:22.232Z,30.70
2022-12-18T22:35:06.833Z,30.60
2022-12-18T22:37:38.022Z,31.20
2022-12-18T22:40:24.645Z,26.17
2022-12-18T22:42:55.080Z,31.27
2022-12-18T22:45:24.598Z,32.03
2022-12-18T22:47:53.971Z,31.35
2022-12-18T22:50:28.874Z,36.50
2022-12-18T22:52:58.232Z,31.42
2022-12-18T22:55:37.954Z,33.22
2022-12-18T22:58:16.673Z,35.80
2022-12-18T23:00:46.294Z,33.65
2022-12-18T23:03:15.075Z,35.38
2022-12-18T23:05:54.014Z,33.67
2022-12-18T23:08:34.948Z,39.00
2022-12-18T23:11:04.191Z,33.92
2022-12-18T23:13:39.795Z,39.42
2022-12-18T23:16:09.972Z,38.92
2022-12-18T23:18:39.185Z,35.10
2022-12-18T23:21:10.865Z,38.05
2022-12-18T23:23:52.158Z,44.20
2022-12-18T23:26:31.422Z,34.17
2022-12-18T23:29:01.862Z,41.72
2022-12-18T23:31:33.044Z,36.67
2022-12-18T23:34:03.055Z,35.65
2022-12-18T23:36:35.841Z,37.85
2022-12-18T23:39:29.066Z,41.53
2022-12-18T23:42:09.065Z,36.03
2022-12-18T23:44:39.882Z,39.17
2022-12-18T23:47:18.874Z,38.92
2022-12-18T23:49:47.852Z,40.88
2022-12-18T23:52:16.828Z,38.55
2022-12-18T23:54:50.839Z,41.78
2022-12-18T23:57:25.592Z,39.33
2022-12-18T23:59:56.184Z,40.58
